Time;durP1;ratioP1;P1;durP2;ratioP2;P2;SDS_P1;SDS_P2;PMS_P1;PMS_P2;Temp;Humidity;BMP_temperature;BMP_pressure;BME280_temperature;BME280_humidity;BME280_pressure;Samples;Min_cycle;Max_cycle;Signal;HPM_P1;HPM_P2
2023/05/28 00:01:06;;;;;;;23.33;9.35;;;;;;;;;;4982278;28;20081;-64
2023/05/28 00:03:32;;;;;;;24.13;9.45;;;;;;;;;;4989950;28;20018;-64
2023/05/28 00:05:57;;;;;;;27.92;10.13;;;;;;;;;;4989714;28;20018;-64
2023/05/28 00:08:23;;;;;;;23.50;9.45;;;;;;;;;;4990890;28;20037;-65
2023/05/28 00:10:48;;;;;;;22.85;9.68;;;;;;;;;;4990506;28;20435;-61
2023/05/28 00:13:13;;;;;;;17.23;8.68;;;;;;;;;;4990062;28;20022;-64
2023/05/28 00:15:39;;;;;;;27.10;10.43;;;;;;;;;;4990379;28;20061;-64
2023/05/28 00:18:04;;;;;;;23.05;8.70;;;;;;;;;;4990792;28;20117;-64
2023/05/28 00:20:30;;;;;;;23.00;8.73;;;;;;;;;;4988659;28;20411;-60
2023/05/28 00:22:55;;;;;;;17.35;8.82;;;;;;;;;;4989932;28;20535;-65
2023/05/28 00:25:20;;;;;;;25.38;9.55;;;;;;;;;;4989572;28;20022;-63
2023/05/28 00:27:45;;;;;;;19.98;9.35;;;;;;;;;;4990207;28;20014;-65
2023/05/28 00:30:11;;;;;;;17.52;8.77;;;;;;;;;;4989535;28;20053;-65
2023/05/28 00:32:36;;;;;;;32.95;14.32;;;;;;;;;;4986540;28;20030;-64
2023/05/28 00:35:02;;;;;;;34.13;15.30;;;;;;;;;;4987271;28;20387;-64
2023/05/28 00:37:27;;;;;;;34.08;14.82;;;;;;;;;;4980002;28;20067;-63
2023/05/28 00:39:53;;;;;;;27.27;11.43;;;;;;;;;;4985193;28;20026;-64
2023/05/28 00:42:18;;;;;;;23.85;10.20;;;;;;;;;;4989236;28;20022;-64
2023/05/28 00:44:44;;;;;;;44.47;13.10;;;;;;;;;;4989313;28;20022;-64
2023/05/28 00:47:10;;;;;;;22.75;10.25;;;;;;;;;;4989779;28;20068;-62
2023/05/28 00:49:35;;;;;;;27.85;10.98;;;;;;;;;;4989189;28;20578;-64
2023/05/28 00:52:01;;;;;;;27.13;9.98;;;;;;;;;;4989748;28;20041;-65
2023/05/28 00:54:27;;;;;;;24.95;9.60;;;;;;;;;;4989724;28;20018;-60
2023/05/28 00:56:53;;;;;;;20.25;9.02;;;;;;;;;;4989565;28;20237;-63
2023/05/28 00:59:18;;;;;;;24.13;10.50;;;;;;;;;;4989821;28;20030;-63
2023/05/28 01:01:43;;;;;;;23.23;10.15;;;;;;;;;;4989688;28;20424;-64
2023/05/28 01:04:08;;;;;;;25.67;9.52;;;;;;;;;;4986830;28;20014;-63
2023/05/28 01:06:37;;;;;;;23.25;9.45;;;;;;;;;;4989574;28;20027;-65
2023/05/28 01:09:02;;;;;;;;;;;;;;;;;;4990324;28;20094;-64
2023/05/28 01:11:28;;;;;;;20.30;10.20;;;;;;;;;;4989534;28;19937;-62
2023/05/28 01:13:53;;;;;;;18.70;8.38;;;;;;;;;;4989039;28;20058;-64
2023/05/28 01:16:19;;;;;;;29.83;9.57;;;;;;;;;;4989753;28;20026;-64
2023/05/28 01:18:44;;;;;;;18.73;8.25;;;;;;;;;;4991308;28;20023;-64
2023/05/28 01:21:10;;;;;;;19.58;8.45;;;;;;;;;;4992610;28;20022;-63
2023/05/28 01:23:37;;;;;;;19.35;7.95;;;;;;;;;;4992796;28;20030;-59
2023/05/28 01:26:03;;;;;;;20.00;7.05;;;;;;;;;;4991894;28;20504;-64
2023/05/28 01:28:28;;;;;;;19.20;7.32;;;;;;;;;;4991790;28;20085;-62
2023/05/28 01:30:53;;;;;;;17.45;6.07;;;;;;;;;;4989355;28;20030;-65
2023/05/28 01:33:21;;;;;;;17.10;6.13;;;;;;;;;;4988795;28;20539;-64
2023/05/28 01:35:46;;;;;;;14.63;6.28;;;;;;;;;;4988846;28;20043;-64
2023/05/28 01:38:12;;;;;;;16.92;7.60;;;;;;;;;;4984086;28;20125;-64
2023/05/28 01:40:44;;;;;;;16.52;6.18;;;;;;;;;;4991905;28;20025;-63
2023/05/28 01:43:10;;;;;;;20.30;6.25;;;;;;;;;;4985341;28;20022;-63
2023/05/28 01:45:38;;;;;;;16.40;5.93;;;;;;;;;;4992524;28;20029;-64
2023/05/28 01:48:04;;;;;;;17.40;5.50;;;;;;;;;;4991648;28;20169;-64
2023/05/28 01:50:32;;;;;;;13.05;5.18;;;;;;;;;;4990802;28;20109;-63
2023/05/28 01:52:57;;;;;;;12.93;5.10;;;;;;;;;;4992538;28;20097;-62
2023/05/28 01:55:24;;;;;;;11.98;5.03;;;;;;;;;;4992508;28;20062;-63
2023/05/28 01:57:49;;;;;;;16.15;6.47;;;;;;;;;;4992552;28;20357;-61
2023/05/28 02:00:15;;;;;;;13.15;4.95;;;;;;;;;;4993140;28;20025;-64
2023/05/28 02:02:41;;;;;;;15.50;5.80;;;;;;;;;;4993039;28;20459;-64
2023/05/28 02:05:06;;;;;;;10.98;4.32;;;;;;;;;;4991403;28;20018;-60
2023/05/28 02:07:32;;;;;;;12.38;4.97;;;;;;;;;;4992557;28;20019;-63
2023/05/28 02:09:57;;;;;;;12.23;4.47;;;;;;;;;;4991603;28;20492;-62
2023/05/28 02:12:22;;;;;;;11.07;4.68;;;;;;;;;;4992450;28;20026;-62
2023/05/28 02:14:47;;;;;;;20.17;4.57;;;;;;;;;;4992510;28;20481;-63
2023/05/28 02:17:13;;;;;;;19.88;5.70;;;;;;;;;;4993199;28;20049;-63
2023/05/28 02:19:38;;;;;;;11.77;5.25;;;;;;;;;;4991184;28;20096;-61
2023/05/28 02:22:11;;;;;;;12.90;5.10;;;;;;;;;;4992780;28;20484;-63
2023/05/28 02:24:36;;;;;;;16.60;5.97;;;;;;;;;;4992084;28;20041;-59
2023/05/28 02:27:03;;;;;;;21.50;5.93;;;;;;;;;;4992019;28;20433;-61
2023/05/28 02:29:28;;;;;;;14.85;5.55;;;;;;;;;;4991728;28;20058;-60
2023/05/28 02:31:54;;;;;;;12.63;4.88;;;;;;;;;;4987676;28;20108;-64
2023/05/28 02:34:19;;;;;;;13.35;5.85;;;;;;;;;;4988890;28;20034;-63
2023/05/28 02:36:44;;;;;;;16.42;6.13;;;;;;;;;;4984056;28;20026;-64
2023/05/28 02:39:10;;;;;;;15.07;6.53;;;;;;;;;;4986406;28;20026;-63
2023/05/28 02:41:35;;;;;;;24.27;7.88;;;;;;;;;;4990610;28;20077;-63
2023/05/28 02:44:01;;;;;;;14.30;6.82;;;;;;;;;;4991464;28;20415;-63
2023/05/28 02:46:26;;;;;;;16.92;7.57;;;;;;;;;;4992562;28;20022;-61
2023/05/28 02:48:51;;;;;;;17.58;7.72;;;;;;;;;;4992178;28;20088;-64
2023/05/28 02:51:16;;;;;;;17.35;7.25;;;;;;;;;;4991415;28;20054;-63
2023/05/28 02:53:42;;;;;;;19.17;7.60;;;;;;;;;;4990658;28;20022;-64
2023/05/28 02:56:07;;;;;;;19.88;7.93;;;;;;;;;;4992162;28;20060;-61
2023/05/28 02:58:32;;;;;;;20.33;7.53;;;;;;;;;;4991480;28;20026;-64
2023/05/28 03:00:57;;;;;;;21.48;6.97;;;;;;;;;;4992095;28;20101;-65
2023/05/28 03:03:23;;;;;;;17.13;6.53;;;;;;;;;;4991273;28;20049;-62
2023/05/28 03:05:51;;;;;;;16.42;6.78;;;;;;;;;;4990900;28;20105;-62
2023/05/28 03:08:16;;;;;;;13.63;6.30;;;;;;;;;;4991424;28;20033;-62
2023/05/28 03:10:41;;;;;;;20.50;7.20;;;;;;;;;;4990579;28;20287;-60
2023/05/28 03:13:07;;;;;;;17.55;6.78;;;;;;;;;;4991124;28;20049;-60
2023/05/28 03:15:32;;;;;;;12.90;5.95;;;;;;;;;;4990904;28;20026;-63
2023/05/28 03:17:58;;;;;;;12.10;6.25;;;;;;;;;;4991569;28;20018;-63
2023/05/28 03:20:23;;;;;;;15.45;5.63;;;;;;;;;;4990680;28;20021;-61
2023/05/28 03:22:49;;;;;;;15.60;5.95;;;;;;;;;;4991006;28;20030;-63
2023/05/28 03:25:14;;;;;;;15.20;6.15;;;;;;;;;;4990612;28;20476;-60
2023/05/28 03:27:39;;;;;;;13.88;5.53;;;;;;;;;;4991214;28;20101;-64
2023/05/28 03:30:06;;;;;;;14.90;6.00;;;;;;;;;;4991159;28;20022;-63
2023/05/28 03:32:32;;;;;;;23.67;6.32;;;;;;;;;;4987686;28;20029;-64
2023/05/28 03:34:57;;;;;;;15.20;6.40;;;;;;;;;;4989560;28;20014;-62
2023/05/28 03:37:22;;;;;;;16.08;6.63;;;;;;;;;;4982620;28;20026;-64
2023/05/28 03:39:47;;;;;;;16.05;6.05;;;;;;;;;;4989690;28;20539;-64
2023/05/28 03:42:13;;;;;;;17.63;5.47;;;;;;;;;;4989949;28;20034;-64
2023/05/28 03:44:38;;;;;;;25.75;6.78;;;;;;;;;;4990309;28;20029;-64
2023/05/28 03:47:03;;;;;;;13.38;6.05;;;;;;;;;;4990963;28;20047;-61
2023/05/28 03:49:28;;;;;;;13.43;5.78;;;;;;;;;;4990240;28;20753;-61
2023/05/28 03:51:53;;;;;;;15.93;6.57;;;;;;;;;;4989749;28;20030;-61
2023/05/28 03:54:19;;;;;;;16.70;6.07;;;;;;;;;;4990006;28;20022;-63
2023/05/28 03:56:44;;;;;;;14.90;6.45;;;;;;;;;;4990210;28;20025;-62
2023/05/28 03:59:09;;;;;;;25.40;7.75;;;;;;;;;;4990770;28;20023;-61
2023/05/28 04:01:36;;;;;;;19.15;7.53;;;;;;;;;;4990706;28;20014;-59
2023/05/28 04:04:01;;;;;;;17.00;6.53;;;;;;;;;;4989617;28;20468;-63
2023/05/28 04:06:26;;;;;;;15.35;7.22;;;;;;;;;;4990338;28;20030;-62
2023/05/28 04:08:52;;;;;;;28.77;9.57;;;;;;;;;;4990665;28;20018;-63
2023/05/28 04:11:17;;;;;;;22.05;8.07;;;;;;;;;;5002561;23;20606;-67
2023/05/28 04:13:43;;;;;;;24.45;8.07;;;;;;;;;;4988993;28;20037;-70
2023/05/28 04:16:09;;;;;;;16.83;6.65;;;;;;;;;;4990754;28;20019;-69
2023/05/28 04:18:34;;;;;;;17.15;6.88;;;;;;;;;;4991230;28;20368;-69
2023/05/28 04:21:00;;;;;;;25.65;7.32;;;;;;;;;;4989589;28;20527;-69
2023/05/28 04:23:26;;;;;;;19.67;7.10;;;;;;;;;;4989902;28;20050;-69
2023/05/28 04:25:53;;;;;;;19.00;7.53;;;;;;;;;;4989881;28;20037;-70
2023/05/28 04:28:19;;;;;;;25.42;11.15;;;;;;;;;;4989523;28;20132;-70
2023/05/28 04:30:44;;;;;;;27.30;12.07;;;;;;;;;;4989655;28;20547;-70
2023/05/28 04:33:09;;;;;;;18.83;9.23;;;;;;;;;;4985994;28;20101;-69
2023/05/28 04:35:35;;;;;;;19.40;8.55;;;;;;;;;;4987323;28;20030;-70
2023/05/28 04:38:00;;;;;;;21.42;7.38;;;;;;;;;;4980967;28;20026;-70
2023/05/28 04:40:26;;;;;;;21.90;7.05;;;;;;;;;;4986694;28;20019;-70
2023/05/28 04:42:55;;;;;;;22.73;7.03;;;;;;;;;;4989958;28;20034;-69
2023/05/28 04:45:20;;;;;;;;;;;;;;;;;;4989055;28;20069;-70
2023/05/28 04:47:45;;;;;;;14.95;5.80;;;;;;;;;;4987910;28;19905;-71
2023/05/28 04:50:11;;;;;;;15.35;5.95;;;;;;;;;;4989378;28;20030;-72
2023/05/28 04:52:37;;;;;;;12.00;5.78;;;;;;;;;;4989564;28;20065;-70
2023/05/28 04:55:05;;;;;;;13.75;5.93;;;;;;;;;;4988544;28;20022;-70
2023/05/28 04:57:32;;;;;;;20.98;4.78;;;;;;;;;;4987990;28;20230;-70
2023/05/28 04:59:57;;;;;;;14.18;5.18;;;;;;;;;;4986979;28;20809;-68
2023/05/28 05:02:23;;;;;;;15.07;4.50;;;;;;;;;;4990052;28;20076;-70
2023/05/28 05:04:48;;;;;;;14.07;5.18;;;;;;;;;;4988804;28;20022;-69
2023/05/28 05:07:14;;;;;;;11.00;5.07;;;;;;;;;;4989035;28;20018;-71
2023/05/28 05:09:39;;;;;;;16.13;4.88;;;;;;;;;;4990100;28;20113;-70
2023/05/28 05:12:05;;;;;;;13.02;4.65;;;;;;;;;;4989126;28;20030;-70
2023/05/28 05:14:30;;;;;;;15.77;4.82;;;;;;;;;;4989047;28;20098;-68
2023/05/28 05:16:56;;;;;;;14.15;4.45;;;;;;;;;;4990737;28;20106;-69
2023/05/28 05:19:21;;;;;;;14.10;4.55;;;;;;;;;;4989588;28;20034;-70
2023/05/28 05:21:47;;;;;;;16.77;4.88;;;;;;;;;;4989485;28;20026;-68
2023/05/28 05:24:12;;;;;;;15.52;4.57;;;;;;;;;;4988120;28;20031;-68
2023/05/28 05:26:37;;;;;;;16.60;5.07;;;;;;;;;;4989394;28;20480;-69
2023/05/28 05:29:02;;;;;;;15.63;5.32;;;;;;;;;;4982242;28;20160;-71
2023/05/28 05:31:28;;;;;;;9.48;4.13;;;;;;;;;;4988980;28;20443;-70
2023/05/28 05:33:53;;;;;;;10.10;4.50;;;;;;;;;;4984589;28;20022;-72
2023/05/28 05:36:18;;;;;;;15.57;5.25;;;;;;;;;;4982151;28;20019;-70
2023/05/28 05:38:45;;;;;;;14.05;5.30;;;;;;;;;;4981945;28;21264;-70
2023/05/28 05:41:11;;;;;;;12.93;5.22;;;;;;;;;;4989558;28;20028;-70
2023/05/28 05:43:36;;;;;;;16.38;5.38;;;;;;;;;;4988423;28;20018;-71
2023/05/28 05:46:02;;;;;;;12.55;5.35;;;;;;;;;;4989525;28;20019;-69
2023/05/28 05:48:27;;;;;;;15.20;6.28;;;;;;;;;;4988888;28;20046;-67
2023/05/28 05:50:57;;;;;;;14.35;5.57;;;;;;;;;;4989101;28;20436;-70
2023/05/28 05:53:23;;;;;;;17.60;6.60;;;;;;;;;;4988348;28;20023;-69
2023/05/28 05:55:48;;;;;;;12.93;6.40;;;;;;;;;;4988597;28;20104;-68
2023/05/28 05:58:14;;;;;;;14.77;6.20;;;;;;;;;;4988594;28;20026;-69
2023/05/28 06:00:39;;;;;;;18.30;5.68;;;;;;;;;;4989081;28;20025;-69
2023/05/28 06:03:06;;;;;;;13.38;7.13;;;;;;;;;;4988991;28;20057;-68
2023/05/28 06:05:34;;;;;;;12.60;5.50;;;;;;;;;;4990271;28;20027;-66
2023/05/28 06:08:00;;;;;;;12.25;5.90;;;;;;;;;;4991871;28;20071;-70
2023/05/28 06:10:26;;;;;;;15.75;5.65;;;;;;;;;;4992121;28;20101;-67
2023/05/28 06:12:51;;;;;;;15.80;5.40;;;;;;;;;;4992182;28;20633;-68
2023/05/28 06:15:17;;;;;;;13.23;4.55;;;;;;;;;;4992034;28;20014;-69
2023/05/28 06:17:43;;;;;;;12.55;5.22;;;;;;;;;;4990988;28;20018;-67
2023/05/28 06:20:08;;;;;;;12.02;4.97;;;;;;;;;;4996206;28;20038;-69
2023/05/28 06:22:34;;;;;;;18.63;5.07;;;;;;;;;;4987447;28;20019;-69
2023/05/28 06:25:01;;;;;;;25.13;5.15;;;;;;;;;;4982968;28;20090;-72
2023/05/28 06:27:27;;;;;;;18.35;4.93;;;;;;;;;;4979084;28;20026;-65
2023/05/28 06:29:52;;;;;;;19.17;4.82;;;;;;;;;;4990086;28;20511;-69
2023/05/28 06:32:17;;;;;;;13.73;5.55;;;;;;;;;;4986913;28;20050;-69
2023/05/28 06:34:43;;;;;;;34.47;5.35;;;;;;;;;;4988076;28;20025;-67
2023/05/28 06:37:08;;;;;;;11.18;4.47;;;;;;;;;;4986799;28;20029;-69
2023/05/28 06:39:33;;;;;;;13.48;4.60;;;;;;;;;;4982967;28;20042;-70
2023/05/28 06:41:59;;;;;;;16.10;4.72;;;;;;;;;;4988298;28;20683;-69
2023/05/28 06:44:24;;;;;;;13.55;4.78;;;;;;;;;;4991502;28;20053;-69
2023/05/28 06:46:50;;;;;;;11.00;3.95;;;;;;;;;;4986290;28;20407;-70
2023/05/28 06:49:15;;;;;;;13.85;4.43;;;;;;;;;;4979433;28;20033;-68
2023/05/28 06:51:41;;;;;;;12.43;4.05;;;;;;;;;;4979708;28;20033;-67
2023/05/28 06:54:06;;;;;;;16.27;3.95;;;;;;;;;;4979603;28;20018;-69
2023/05/28 06:56:31;;;;;;;11.88;4.05;;;;;;;;;;4983688;28;20027;-69
2023/05/28 06:58:56;;;;;;;20.30;4.93;;;;;;;;;;4986170;28;20077;-67
2023/05/28 07:01:21;;;;;;;15.52;4.40;;;;;;;;;;4984376;28;20027;-67
2023/05/28 07:03:47;;;;;;;16.33;3.65;;;;;;;;;;4985909;28;20588;-69
2023/05/28 07:06:12;;;;;;;13.30;4.65;;;;;;;;;;4978464;28;20022;-68
2023/05/28 07:08:40;;;;;;;11.93;4.03;;;;;;;;;;4981599;28;20473;-67
2023/05/28 07:11:06;;;;;;;14.63;4.20;;;;;;;;;;4989760;28;20030;-68
2023/05/28 07:13:31;;;;;;;11.85;3.40;;;;;;;;;;4990343;28;20038;-68
2023/05/28 07:15:56;;;;;;;10.80;3.97;;;;;;;;;;4989658;28;20063;-67
2023/05/28 07:18:23;;;;;;;12.50;3.90;;;;;;;;;;4991469;28;20069;-68
2023/05/28 07:20:48;;;;;;;12.20;4.50;;;;;;;;;;4989710;28;20058;-69
2023/05/28 07:23:13;;;;;;;14.23;4.13;;;;;;;;;;4989415;28;20045;-74
2023/05/28 07:25:41;;;;;;;18.45;4.25;;;;;;;;;;4982998;28;20034;-73
2023/05/28 07:28:06;;;;;;;13.23;3.45;;;;;;;;;;4989175;28;20025;-69
2023/05/28 07:30:31;;;;;;;10.60;3.35;;;;;;;;;;4990958;28;20034;-69
2023/05/28 07:32:57;;;;;;;11.68;3.60;;;;;;;;;;4991315;28;20023;-70
2023/05/28 07:35:22;;;;;;;12.10;3.15;;;;;;;;;;4989478;28;20413;-69
2023/05/28 07:37:47;;;;;;;8.45;3.30;;;;;;;;;;4989696;28;20022;-68
2023/05/28 07:40:14;;;;;;;11.20;3.88;;;;;;;;;;4978160;28;20057;-68
2023/05/28 07:42:39;;;;;;;13.38;3.72;;;;;;;;;;4986456;28;20023;-70
2023/05/28 07:45:05;;;;;;;15.38;3.05;;;;;;;;;;4980970;28;20507;-69
2023/05/28 07:47:30;;;;;;;7.72;3.15;;;;;;;;;;4990460;28;20022;-69
2023/05/28 07:49:56;;;;;;;17.23;4.05;;;;;;;;;;4990132;28;20037;-68
2023/05/28 07:52:21;;;;;;;7.95;2.88;;;;;;;;;;4989607;28;20041;-68
2023/05/28 07:54:46;;;;;;;8.80;2.72;;;;;;;;;;4983079;28;20034;-68
2023/05/28 07:57:11;;;;;;;12.57;3.65;;;;;;;;;;4986951;28;20531;-69
2023/05/28 07:59:36;;;;;;;11.40;3.22;;;;;;;;;;4988478;28;20535;-68
2023/05/28 08:02:02;;;;;;;11.13;2.95;;;;;;;;;;4982936;28;20522;-68
2023/05/28 08:04:27;;;;;;;12.13;3.30;;;;;;;;;;4987397;28;20073;-68
2023/05/28 08:06:52;;;;;;;16.90;3.70;;;;;;;;;;4989546;28;20022;-69
2023/05/28 08:09:17;;;;;;;9.60;2.88;;;;;;;;;;4988957;28;20435;-69
2023/05/28 08:11:43;;;;;;;9.05;3.05;;;;;;;;;;4982266;28;20092;-67
2023/05/28 08:14:08;;;;;;;10.10;3.33;;;;;;;;;;4989405;28;20026;-67
2023/05/28 08:16:34;;;;;;;7.80;2.83;;;;;;;;;;4990559;28;20365;-68
2023/05/28 08:18:59;;;;;;;9.48;2.70;;;;;;;;;;4986205;28;20519;-71
2023/05/28 08:21:26;;;;;;;18.90;3.53;;;;;;;;;;4987553;28;20064;-67
2023/05/28 08:23:52;;;;;;;9.80;2.85;;;;;;;;;;4988549;28;20034;-66
2023/05/28 08:26:17;;;;;;;10.50;3.05;;;;;;;;;;4989282;28;20451;-69
2023/05/28 08:28:42;;;;;;;10.52;3.10;;;;;;;;;;4986063;28;20084;-66
2023/05/28 08:31:07;;;;;;;12.98;3.15;;;;;;;;;;4981885;28;20025;-67
2023/05/28 08:33:33;;;;;;;11.15;3.03;;;;;;;;;;4983864;28;20109;-70
2023/05/28 08:36:00;;;;;;;13.65;2.70;;;;;;;;;;4981948;28;20186;-68
2023/05/28 08:38:25;;;;;;;9.00;3.17;;;;;;;;;;4981052;28;20051;-69
2023/05/28 08:40:53;;;;;;;8.75;2.70;;;;;;;;;;4989699;28;20022;-68
2023/05/28 08:43:19;;;;;;;10.57;3.05;;;;;;;;;;4987456;28;20033;-69
2023/05/28 08:45:45;;;;;;;10.80;2.92;;;;;;;;;;4988303;28;20022;-68
2023/05/28 08:48:11;;;;;;;9.77;3.17;;;;;;;;;;4983743;28;20595;-67
2023/05/28 08:50:38;;;;;;;11.15;3.33;;;;;;;;;;4988024;28;20117;-68
2023/05/28 08:53:07;;;;;;;11.45;3.00;;;;;;;;;;4988066;28;20025;-69
2023/05/28 08:55:32;;;;;;;10.02;2.72;;;;;;;;;;4987906;28;20026;-67
2023/05/28 08:58:00;;;;;;;14.38;2.92;;;;;;;;;;4986151;28;20025;-69
2023/05/28 09:00:26;;;;;;;9.32;3.13;;;;;;;;;;4987591;28;20029;-68
2023/05/28 09:02:51;;;;;;;9.35;2.20;;;;;;;;;;4988628;28;20030;-69
2023/05/28 09:05:17;;;;;;;9.93;3.42;;;;;;;;;;4985505;28;20073;-69
2023/05/28 09:07:42;;;;;;;9.00;2.83;;;;;;;;;;4982604;28;20084;-68
2023/05/28 09:10:10;;;;;;;8.98;2.92;;;;;;;;;;4989227;28;20041;-67
2023/05/28 09:12:37;;;;;;;9.23;2.80;;;;;;;;;;4989396;28;20026;-67
2023/05/28 09:15:03;;;;;;;11.07;2.80;;;;;;;;;;4986906;28;20037;-69
2023/05/28 09:17:35;;;;;;;7.97;2.60;;;;;;;;;;4988913;28;20023;-69
2023/05/28 09:20:01;;;;;;;12.52;3.88;;;;;;;;;;4980868;28;20120;-70
2023/05/28 09:22:27;;;;;;;10.38;2.58;;;;;;;;;;4980154;28;20110;-69
2023/05/28 09:24:54;;;;;;;14.63;2.95;;;;;;;;;;4988290;28;20396;-70
2023/05/28 09:27:20;;;;;;;6.20;2.50;;;;;;;;;;4988194;28;20025;-67
2023/05/28 09:29:46;;;;;;;8.90;2.97;;;;;;;;;;4986377;28;20401;-69
2023/05/28 09:32:16;;;;;;;7.07;2.50;;;;;;;;;;4980658;28;20030;-70
2023/05/28 09:34:45;;;;;;;11.30;2.72;;;;;;;;;;4985585;28;20019;-68
2023/05/28 09:37:10;;;;;;;15.18;3.60;;;;;;;;;;4977546;28;20014;-69
2023/05/28 09:39:35;;;;;;;13.43;2.42;;;;;;;;;;4984390;28;20035;-69
2023/05/28 09:42:09;;;;;;;10.35;2.22;;;;;;;;;;4993175;28;20025;-69
2023/05/28 09:44:35;;;;;;;8.20;2.40;;;;;;;;;;4986867;28;20027;-68
2023/05/28 09:47:00;;;;;;;8.68;2.53;;;;;;;;;;4990797;28;20504;-70
2023/05/28 09:49:29;;;;;;;9.52;2.90;;;;;;;;;;4991759;28;20033;-69
2023/05/28 09:51:56;;;;;;;11.98;2.78;;;;;;;;;;4988994;28;20131;-66
2023/05/28 09:54:24;;;;;;;8.75;2.83;;;;;;;;;;4977771;28;20497;-69
2023/05/28 09:56:51;;;;;;;8.50;2.92;;;;;;;;;;4988486;28;20376;-69
2023/05/28 09:59:17;;;;;;;10.02;2.58;;;;;;;;;;4989125;28;20027;-68
2023/05/28 10:01:52;;;;;;;11.65;2.85;;;;;;;;;;4992709;28;20412;-70
2023/05/28 10:04:20;;;;;;;9.00;2.90;;;;;;;;;;4984716;28;20389;-68
2023/05/28 10:06:46;;;;;;;8.30;2.58;;;;;;;;;;4992748;28;20427;-68
2023/05/28 10:09:14;;;;;;;10.32;2.85;;;;;;;;;;4992376;28;20026;-71
2023/05/28 10:11:43;;;;;;;10.57;2.92;;;;;;;;;;4992687;28;20113;-71
2023/05/28 10:14:09;;;;;;;9.98;2.60;;;;;;;;;;4991450;28;20030;-70
2023/05/28 10:16:34;;;;;;;10.73;2.85;;;;;;;;;;4987430;28;20087;-70
2023/05/28 10:19:00;;;;;;;8.13;2.63;;;;;;;;;;4987580;28;20033;-68
2023/05/28 10:21:26;;;;;;;8.93;2.38;;;;;;;;;;4991598;28;20077;-72
2023/05/28 10:23:51;;;;;;;11.00;2.88;;;;;;;;;;4990462;28;20080;-70
2023/05/28 10:26:18;;;;;;;5.55;2.10;;;;;;;;;;4991766;28;20114;-67
2023/05/28 10:28:44;;;;;;;11.20;2.90;;;;;;;;;;4990755;28;20600;-70
2023/05/28 10:31:10;;;;;;;6.18;2.10;;;;;;;;;;4982920;28;20031;-69
2023/05/28 10:33:41;;;;;;;8.32;2.70;;;;;;;;;;4982572;28;20118;-67
2023/05/28 10:36:13;;;;;;;6.18;2.33;;;;;;;;;;4987658;28;20081;-69
2023/05/28 10:38:43;;;;;;;14.07;2.80;;;;;;;;;;4983519;28;20026;-69
2023/05/28 10:41:08;;;;;;;9.70;3.30;;;;;;;;;;4990881;28;20041;-70
2023/05/28 10:43:39;;;;;;;8.63;3.47;;;;;;;;;;4986218;28;20113;-69
2023/05/28 10:46:20;;;;;;;11.50;2.60;;;;;;;;;;4992064;28;20085;-69
2023/05/28 10:49:03;;;;;;;8.27;2.45;;;;;;;;;;4987428;28;20026;-71
2023/05/28 10:51:47;;;;;;;6.47;2.75;;;;;;;;;;4986189;28;20032;-68
2023/05/28 10:54:20;;;;;;;9.95;3.00;;;;;;;;;;4982978;28;20408;-70
2023/05/28 10:57:21;;;;;;;9.68;2.90;;;;;;;;;;4990225;28;20532;-68
2023/05/28 10:59:57;;;;;;;9.82;2.65;;;;;;;;;;4979124;28;20041;-69
2023/05/28 11:02:26;;;;;;;8.32;2.53;;;;;;;;;;4985453;28;20026;-66
2023/05/28 11:04:56;;;;;;;5.85;2.38;;;;;;;;;;4990306;28;20023;-69
2023/05/28 11:07:22;;;;;;;10.32;2.10;;;;;;;;;;4989893;28;20540;-68
2023/05/28 11:09:49;;;;;;;8.27;2.45;;;;;;;;;;4986408;28;20026;-68
2023/05/28 11:12:14;;;;;;;11.85;2.85;;;;;;;;;;4991160;28;20531;-67
2023/05/28 11:14:40;;;;;;;8.27;2.75;;;;;;;;;;4990055;28;20022;-68
2023/05/28 11:17:15;;;;;;;10.85;3.33;;;;;;;;;;4985861;28;20432;-71
2023/05/28 11:19:43;;;;;;;8.77;2.70;;;;;;;;;;4984806;28;20361;-71
2023/05/28 11:22:08;;;;;;;11.65;2.50;;;;;;;;;;4990471;28;20021;-72
2023/05/28 11:24:52;;;;;;;7.20;2.78;;;;;;;;;;4987635;28;20027;-69
2023/05/28 11:27:18;;;;;;;9.38;2.80;;;;;;;;;;4987646;28;20015;-67
2023/05/28 11:29:43;;;;;;;12.75;2.78;;;;;;;;;;4986736;28;20399;-72
2023/05/28 11:32:08;;;;;;;6.78;2.40;;;;;;;;;;4984985;28;20098;-71
2023/05/28 11:34:36;;;;;;;10.43;2.88;;;;;;;;;;4981922;28;20034;-68
2023/05/28 11:37:01;;;;;;;8.07;2.80;;;;;;;;;;4983883;28;20056;-72
2023/05/28 11:39:29;;;;;;;9.02;2.90;;;;;;;;;;4980123;28;20066;-69
2023/05/28 11:41:55;;;;;;;8.75;2.47;;;;;;;;;;4989131;28;20556;-70
2023/05/28 11:44:21;;;;;;;6.00;2.50;;;;;;;;;;4986121;28;20098;-70
2023/05/28 11:46:48;;;;;;;10.95;2.75;;;;;;;;;;4988086;28;20022;-70
2023/05/28 11:49:14;;;;;;;9.00;2.50;;;;;;;;;;4985087;28;20019;-69
2023/05/28 11:51:40;;;;;;;9.18;2.88;;;;;;;;;;4988961;28;20031;-69
2023/05/28 11:54:05;;;;;;;8.15;2.30;;;;;;;;;;4995224;28;20026;-70
2023/05/28 11:56:36;;;;;;;5.07;1.90;;;;;;;;;;4987688;28;20038;-68
2023/05/28 11:59:02;;;;;;;6.40;2.08;;;;;;;;;;4980322;28;20033;-71
2023/05/28 12:01:31;;;;;;;6.00;2.40;;;;;;;;;;4990779;28;20086;-69
2023/05/28 12:04:03;;;;;;;7.45;2.35;;;;;;;;;;4988361;28;20034;-72
2023/05/28 12:06:31;;;;;;;7.25;2.80;;;;;;;;;;4989911;28;20018;-70
2023/05/28 12:09:01;;;;;;;12.55;2.75;;;;;;;;;;4990226;28;20684;-69
2023/05/28 12:11:26;;;;;;;6.90;2.92;;;;;;;;;;4990507;28;20029;-72
2023/05/28 12:13:52;;;;;;;8.68;2.42;;;;;;;;;;4985111;28;20038;-70
2023/05/28 12:16:17;;;;;;;18.55;2.85;;;;;;;;;;4990467;28;20072;-72
2023/05/28 12:18:43;;;;;;;5.97;2.20;;;;;;;;;;4985505;28;20026;-69
2023/05/28 12:21:20;;;;;;;11.35;2.50;;;;;;;;;;4972393;28;20015;-68
2023/05/28 12:23:46;;;;;;;7.43;2.45;;;;;;;;;;4969588;28;20093;-70
2023/05/28 12:26:17;;;;;;;8.48;2.22;;;;;;;;;;4978820;28;20343;-67
2023/05/28 12:28:42;;;;;;;10.30;2.58;;;;;;;;;;4975204;28;20081;-67
2023/05/28 12:31:08;;;;;;;8.25;2.33;;;;;;;;;;4973671;28;20015;-72
2023/05/28 12:33:33;;;;;;;10.45;2.55;;;;;;;;;;4974038;28;20052;-70
2023/05/28 12:35:59;;;;;;;5.55;2.40;;;;;;;;;;4976354;28;20485;-68
2023/05/28 12:38:25;;;;;;;7.03;2.65;;;;;;;;;;4971608;28;20022;-70
2023/05/28 12:40:50;;;;;;;8.85;2.45;;;;;;;;;;4975198;28;20044;-69
2023/05/28 12:43:15;;;;;;;8.27;2.75;;;;;;;;;;4973425;28;20102;-70
2023/05/28 12:45:40;;;;;;;8.52;2.38;;;;;;;;;;4967687;28;20110;-70
2023/05/28 12:48:08;;;;;;;6.78;2.42;;;;;;;;;;4986695;28;20303;-74
2023/05/28 12:50:33;;;;;;;6.00;2.28;;;;;;;;;;4983982;28;20036;-67
2023/05/28 12:52:58;;;;;;;8.23;2.15;;;;;;;;;;4982984;28;22231;-70
2023/05/28 12:55:23;;;;;;;8.88;2.58;;;;;;;;;;4989084;28;20042;-71
2023/05/28 12:57:49;;;;;;;7.40;2.33;;;;;;;;;;4989582;28;20081;-71
2023/05/28 13:00:15;;;;;;;10.15;2.42;;;;;;;;;;4987412;28;20284;-69
2023/05/28 13:02:40;;;;;;;7.15;2.45;;;;;;;;;;4989445;28;20018;-70
2023/05/28 13:05:06;;;;;;;7.15;2.08;;;;;;;;;;4988244;28;20068;-68
2023/05/28 13:07:31;;;;;;;7.20;2.72;;;;;;;;;;4988973;28;20096;-68
2023/05/28 13:09:57;;;;;;;12.32;2.40;;;;;;;;;;4989043;28;20054;-72
2023/05/28 13:12:22;;;;;;;9.30;2.25;;;;;;;;;;4989346;28;20033;-69
2023/05/28 13:14:47;;;;;;;7.67;2.57;;;;;;;;;;4984795;28;20026;-71
2023/05/28 13:17:13;;;;;;;6.95;2.45;;;;;;;;;;4992537;28;20274;-68
2023/05/28 13:19:38;;;;;;;9.90;2.50;;;;;;;;;;4987703;28;20050;-69
2023/05/28 13:22:03;;;;;;;8.90;2.10;;;;;;;;;;4990851;28;20081;-70
2023/05/28 13:24:31;;;;;;;10.32;2.75;;;;;;;;;;4978143;28;20029;-69
2023/05/28 13:26:56;;;;;;;7.70;2.47;;;;;;;;;;4977724;28;20158;-70
2023/05/28 13:29:22;;;;;;;6.60;2.45;;;;;;;;;;4974261;28;20125;-70
2023/05/28 13:31:47;;;;;;;6.80;2.15;;;;;;;;;;4979476;28;20170;-68
2023/05/28 13:34:12;;;;;;;5.97;2.60;;;;;;;;;;4976004;28;20118;-69
2023/05/28 13:36:37;;;;;;;7.40;2.70;;;;;;;;;;4977774;28;20278;-69
2023/05/28 13:39:04;;;;;;;6.97;2.10;;;;;;;;;;4976032;28;20287;-70
2023/05/28 13:41:30;;;;;;;11.23;2.38;;;;;;;;;;4979569;28;20273;-69
2023/05/28 13:43:55;;;;;;;8.00;2.17;;;;;;;;;;4975487;28;20011;-69
2023/05/28 13:46:21;;;;;;;5.47;2.35;;;;;;;;;;4975995;28;20030;-70
2023/05/28 13:48:46;;;;;;;6.88;2.33;;;;;;;;;;4975781;28;20038;-69
2023/05/28 13:51:11;;;;;;;5.70;2.53;;;;;;;;;;4973537;28;20078;-70
2023/05/28 13:53:37;;;;;;;5.85;2.10;;;;;;;;;;4972675;28;20268;-72
2023/05/28 13:56:03;;;;;;;5.32;2.22;;;;;;;;;;4975773;28;20114;-69
2023/05/28 13:58:28;;;;;;;8.10;2.88;;;;;;;;;;4975182;28;20527;-72
2023/05/28 14:00:53;;;;;;;9.25;2.38;;;;;;;;;;4976730;28;20022;-69
2023/05/28 14:03:18;;;;;;;7.80;2.22;;;;;;;;;;4974949;28;20041;-67
2023/05/28 14:05:44;;;;;;;7.88;2.30;;;;;;;;;;4975557;28;20026;-69
2023/05/28 14:08:10;;;;;;;5.72;2.22;;;;;;;;;;4973335;28;20023;-71
2023/05/28 14:10:35;;;;;;;5.80;1.85;;;;;;;;;;4973516;28;20536;-70
2023/05/28 14:13:01;;;;;;;9.67;2.37;;;;;;;;;;4975695;28;20029;-69
2023/05/28 14:15:26;;;;;;;7.80;2.88;;;;;;;;;;4973857;28;20257;-71
2023/05/28 14:17:52;;;;;;;5.93;2.55;;;;;;;;;;4972951;28;20038;-71
2023/05/28 14:20:17;;;;;;;8.88;2.65;;;;;;;;;;4975371;28;20042;-70
2023/05/28 14:22:44;;;;;;;10.70;2.70;;;;;;;;;;4972139;28;20038;-70
2023/05/28 14:25:09;;;;;;;4.95;1.83;;;;;;;;;;4979098;28;20046;-70
2023/05/28 14:27:34;;;;;;;7.03;2.33;;;;;;;;;;4972834;28;20565;-71